sensor_id;sensor_type;location;lat;lon;timestamp;P1;durP1;ratioP1;P2;durP2;ratioP2
73840;SDS011;62183;49.006;12.102;2022-10-16T00:00:15;11.63;;;7.53;;
73840;SDS011;62183;49.006;12.102;2022-10-16T00:02:40;7.53;;;6.75;;
73840;SDS011;62183;49.006;12.102;2022-10-16T00:05:05;8.13;;;6.43;;
73840;SDS011;62183;49.006;12.102;2022-10-16T00:07:30;9.70;;;7.93;;
73840;SDS011;62183;49.006;12.102;2022-10-16T00:09:56;8.57;;;7.70;;
73840;SDS011;62183;49.006;12.102;2022-10-16T00:12:21;9.43;;;7.97;;
73840;SDS011;62183;49.006;12.102;2022-10-16T00:14:46;9.57;;;7.53;;
73840;SDS011;62183;49.006;12.102;2022-10-16T00:17:11;8.77;;;7.83;;
73840;SDS011;62183;49.006;12.102;2022-10-16T00:19:36;9.87;;;8.33;;
73840;SDS011;62183;49.006;12.102;2022-10-16T00:22:01;9.57;;;7.40;;
73840;SDS011;62183;49.006;12.102;2022-10-16T00:24:27;8.37;;;7.13;;
73840;SDS011;62183;49.006;12.102;2022-10-16T00:26:52;9.25;;;7.90;;
73840;SDS011;62183;49.006;12.102;2022-10-16T00:29:18;9.30;;;8.03;;
73840;SDS011;62183;49.006;12.102;2022-10-16T00:31:43;9.33;;;7.93;;
73840;SDS011;62183;49.006;12.102;2022-10-16T00:34:08;9.63;;;7.37;;
73840;SDS011;62183;49.006;12.102;2022-10-16T00:36:33;9.57;;;7.80;;
73840;SDS011;62183;49.006;12.102;2022-10-16T00:38:58;10.20;;;7.70;;
73840;SDS011;62183;49.006;12.102;2022-10-16T00:41:24;10.33;;;8.00;;
73840;SDS011;62183;49.006;12.102;2022-10-16T00:43:50;10.10;;;8.05;;
73840;SDS011;62183;49.006;12.102;2022-10-16T00:46:17;11.10;;;7.97;;
73840;SDS011;62183;49.006;12.102;2022-10-16T00:48:48;14.70;;;8.02;;
73840;SDS011;62183;49.006;12.102;2022-10-16T00:51:15;9.90;;;7.97;;
73840;SDS011;62183;49.006;12.102;2022-10-16T00:53:41;11.05;;;8.18;;
73840;SDS011;62183;49.006;12.102;2022-10-16T00:56:06;12.68;;;8.55;;
73840;SDS011;62183;49.006;12.102;2022-10-16T00:58:31;15.10;;;8.60;;
73840;SDS011;62183;49.006;12.102;2022-10-16T01:00:56;9.38;;;7.63;;
73840;SDS011;62183;49.006;12.102;2022-10-16T01:03:23;10.00;;;7.67;;
73840;SDS011;62183;49.006;12.102;2022-10-16T01:05:50;10.48;;;7.95;;
73840;SDS011;62183;49.006;12.102;2022-10-16T01:08:22;8.90;;;7.78;;
73840;SDS011;62183;49.006;12.102;2022-10-16T01:13:21;11.43;;;7.32;;
73840;SDS011;62183;49.006;12.102;2022-10-16T01:18:34;8.32;;;7.03;;
73840;SDS011;62183;49.006;12.102;2022-10-16T01:21:01;9.55;;;7.18;;
73840;SDS011;62183;49.006;12.102;2022-10-16T01:23:31;8.45;;;6.70;;
73840;SDS011;62183;49.006;12.102;2022-10-16T01:31:08;7.10;;;6.40;;
73840;SDS011;62183;49.006;12.102;2022-10-16T01:33:35;7.55;;;6.85;;
73840;SDS011;62183;49.006;12.102;2022-10-16T01:36:06;9.35;;;7.30;;
73840;SDS011;62183;49.006;12.102;2022-10-16T01:38:35;8.25;;;6.72;;
73840;SDS011;62183;49.006;12.102;2022-10-16T01:41:03;10.38;;;7.18;;
73840;SDS011;62183;49.006;12.102;2022-10-16T01:43:33;7.57;;;6.78;;
73840;SDS011;62183;49.006;12.102;2022-10-16T01:46:00;6.72;;;6.10;;
73840;SDS011;62183;49.006;12.102;2022-10-16T01:48:26;7.25;;;6.43;;
73840;SDS011;62183;49.006;12.102;2022-10-16T01:50:57;6.93;;;6.27;;
73840;SDS011;62183;49.006;12.102;2022-10-16T01:53:23;8.82;;;7.13;;
73840;SDS011;62183;49.006;12.102;2022-10-16T01:55:49;6.68;;;6.03;;
73840;SDS011;62183;49.006;12.102;2022-10-16T01:58:15;11.68;;;6.68;;
73840;SDS011;62183;49.006;12.102;2022-10-16T02:00:41;6.40;;;5.85;;
73840;SDS011;62183;49.006;12.102;2022-10-16T02:03:08;7.13;;;6.43;;
73840;SDS011;62183;49.006;12.102;2022-10-16T02:05:53;9.63;;;6.85;;
73840;SDS011;62183;49.006;12.102;2022-10-16T02:08:19;6.20;;;5.70;;
73840;SDS011;62183;49.006;12.102;2022-10-16T02:10:44;6.50;;;5.90;;
73840;SDS011;62183;49.006;12.102;2022-10-16T02:13:15;10.68;;;6.72;;
73840;SDS011;62183;49.006;12.102;2022-10-16T02:15:41;9.20;;;7.05;;
73840;SDS011;62183;49.006;12.102;2022-10-16T02:18:07;7.63;;;6.43;;
73840;SDS011;62183;49.006;12.102;2022-10-16T02:20:34;8.77;;;6.93;;
73840;SDS011;62183;49.006;12.102;2022-10-16T02:23:01;7.18;;;5.85;;
73840;SDS011;62183;49.006;12.102;2022-10-16T02:25:30;9.57;;;6.80;;
73840;SDS011;62183;49.006;12.102;2022-10-16T02:30:29;7.85;;;5.95;;
73840;SDS011;62183;49.006;12.102;2022-10-16T02:32:55;8.27;;;6.20;;
73840;SDS011;62183;49.006;12.102;2022-10-16T02:35:22;8.57;;;6.82;;
73840;SDS011;62183;49.006;12.102;2022-10-16T02:37:48;6.90;;;6.25;;
73840;SDS011;62183;49.006;12.102;2022-10-16T02:40:15;8.15;;;6.38;;
73840;SDS011;62183;49.006;12.102;2022-10-16T02:42:40;9.68;;;6.53;;
73840;SDS011;62183;49.006;12.102;2022-10-16T02:45:06;8.32;;;6.40;;
73840;SDS011;62183;49.006;12.102;2022-10-16T02:47:32;7.50;;;6.72;;
73840;SDS011;62183;49.006;12.102;2022-10-16T02:49:57;7.60;;;6.40;;
73840;SDS011;62183;49.006;12.102;2022-10-16T02:52:22;9.07;;;7.00;;
73840;SDS011;62183;49.006;12.102;2022-10-16T02:54:47;11.83;;;7.10;;
73840;SDS011;62183;49.006;12.102;2022-10-16T02:57:13;8.43;;;6.47;;
73840;SDS011;62183;49.006;12.102;2022-10-16T02:59:38;7.83;;;6.53;;
73840;SDS011;62183;49.006;12.102;2022-10-16T03:02:03;7.25;;;6.53;;
73840;SDS011;62183;49.006;12.102;2022-10-16T03:04:28;12.10;;;7.05;;
73840;SDS011;62183;49.006;12.102;2022-10-16T03:06:54;9.43;;;7.50;;
73840;SDS011;62183;49.006;12.102;2022-10-16T03:09:19;9.83;;;7.13;;
73840;SDS011;62183;49.006;12.102;2022-10-16T03:11:44;13.40;;;7.93;;
73840;SDS011;62183;49.006;12.102;2022-10-16T03:14:09;9.43;;;7.20;;
73840;SDS011;62183;49.006;12.102;2022-10-16T03:16:34;7.90;;;6.40;;
73840;SDS011;62183;49.006;12.102;2022-10-16T03:19:00;9.87;;;7.83;;
73840;SDS011;62183;49.006;12.102;2022-10-16T03:21:25;12.70;;;7.88;;
73840;SDS011;62183;49.006;12.102;2022-10-16T03:23:51;12.37;;;9.97;;
73840;SDS011;62183;49.006;12.102;2022-10-16T03:26:16;15.50;;;9.30;;
73840;SDS011;62183;49.006;12.102;2022-10-16T03:28:41;12.77;;;8.33;;
73840;SDS011;62183;49.006;12.102;2022-10-16T03:31:06;8.70;;;7.20;;
73840;SDS011;62183;49.006;12.102;2022-10-16T03:33:31;9.93;;;7.80;;
73840;SDS011;62183;49.006;12.102;2022-10-16T03:35:57;7.70;;;6.93;;
73840;SDS011;62183;49.006;12.102;2022-10-16T03:38:22;9.43;;;6.93;;
73840;SDS011;62183;49.006;12.102;2022-10-16T03:40:47;10.00;;;6.70;;
73840;SDS011;62183;49.006;12.102;2022-10-16T03:43:12;7.73;;;6.37;;
73840;SDS011;62183;49.006;12.102;2022-10-16T03:45:37;9.03;;;6.77;;
73840;SDS011;62183;49.006;12.102;2022-10-16T03:48:03;7.27;;;6.57;;
73840;SDS011;62183;49.006;12.102;2022-10-16T03:50:28;9.90;;;7.33;;
73840;SDS011;62183;49.006;12.102;2022-10-16T03:52:53;8.13;;;6.53;;
73840;SDS011;62183;49.006;12.102;2022-10-16T03:55:18;6.47;;;5.70;;
73840;SDS011;62183;49.006;12.102;2022-10-16T03:57:43;5.97;;;5.40;;
73840;SDS011;62183;49.006;12.102;2022-10-16T04:00:09;6.43;;;5.77;;
73840;SDS011;62183;49.006;12.102;2022-10-16T04:02:34;8.57;;;6.93;;
73840;SDS011;62183;49.006;12.102;2022-10-16T04:04:59;11.80;;;6.97;;
73840;SDS011;62183;49.006;12.102;2022-10-16T04:07:24;8.60;;;6.47;;
73840;SDS011;62183;49.006;12.102;2022-10-16T04:09:50;7.93;;;6.20;;
73840;SDS011;62183;49.006;12.102;2022-10-16T04:12:15;8.70;;;6.50;;
73840;SDS011;62183;49.006;12.102;2022-10-16T04:14:40;10.40;;;7.13;;
73840;SDS011;62183;49.006;12.102;2022-10-16T04:17:05;9.10;;;7.30;;
73840;SDS011;62183;49.006;12.102;2022-10-16T04:19:30;7.43;;;6.20;;
73840;SDS011;62183;49.006;12.102;2022-10-16T04:21:55;7.00;;;6.30;;
73840;SDS011;62183;49.006;12.102;2022-10-16T04:24:21;7.93;;;6.87;;
73840;SDS011;62183;49.006;12.102;2022-10-16T04:26:46;6.23;;;5.63;;
73840;SDS011;62183;49.006;12.102;2022-10-16T04:29:11;6.07;;;5.57;;
73840;SDS011;62183;49.006;12.102;2022-10-16T04:31:36;7.70;;;7.00;;
73840;SDS011;62183;49.006;12.102;2022-10-16T04:34:01;7.20;;;6.40;;
73840;SDS011;62183;49.006;12.102;2022-10-16T04:36:27;8.03;;;7.23;;
73840;SDS011;62183;49.006;12.102;2022-10-16T04:38:52;9.77;;;7.60;;
73840;SDS011;62183;49.006;12.102;2022-10-16T04:41:17;10.23;;;7.30;;
73840;SDS011;62183;49.006;12.102;2022-10-16T04:43:42;14.13;;;7.50;;
73840;SDS011;62183;49.006;12.102;2022-10-16T04:46:07;7.10;;;6.40;;
73840;SDS011;62183;49.006;12.102;2022-10-16T04:48:32;9.43;;;7.40;;
73840;SDS011;62183;49.006;12.102;2022-10-16T04:50:58;8.23;;;7.10;;
73840;SDS011;62183;49.006;12.102;2022-10-16T04:53:23;8.52;;;6.88;;
73840;SDS011;62183;49.006;12.102;2022-10-16T04:55:49;11.47;;;7.43;;
73840;SDS011;62183;49.006;12.102;2022-10-16T04:58:14;9.60;;;7.88;;
73840;SDS011;62183;49.006;12.102;2022-10-16T05:00:39;10.70;;;7.73;;
73840;SDS011;62183;49.006;12.102;2022-10-16T05:03:05;9.07;;;6.93;;
73840;SDS011;62183;49.006;12.102;2022-10-16T05:05:30;8.48;;;7.55;;
73840;SDS011;62183;49.006;12.102;2022-10-16T05:07:55;7.40;;;6.70;;
73840;SDS011;62183;49.006;12.102;2022-10-16T05:10:20;7.73;;;6.93;;
73840;SDS011;62183;49.006;12.102;2022-10-16T05:12:46;8.50;;;7.20;;
73840;SDS011;62183;49.006;12.102;2022-10-16T05:15:11;9.75;;;8.23;;
73840;SDS011;62183;49.006;12.102;2022-10-16T05:17:36;8.27;;;7.33;;
73840;SDS011;62183;49.006;12.102;2022-10-16T05:20:01;11.57;;;7.47;;
73840;SDS011;62183;49.006;12.102;2022-10-16T05:22:27;8.27;;;7.03;;
73840;SDS011;62183;49.006;12.102;2022-10-16T05:24:52;7.87;;;7.00;;
73840;SDS011;62183;49.006;12.102;2022-10-16T05:27:17;8.70;;;7.20;;
73840;SDS011;62183;49.006;12.102;2022-10-16T05:29:42;7.60;;;6.83;;
73840;SDS011;62183;49.006;12.102;2022-10-16T05:32:08;8.15;;;7.35;;
73840;SDS011;62183;49.006;12.102;2022-10-16T05:34:34;9.17;;;6.10;;
73840;SDS011;62183;49.006;12.102;2022-10-16T05:36:59;9.23;;;7.27;;
73840;SDS011;62183;49.006;12.102;2022-10-16T05:39:24;8.17;;;7.37;;
73840;SDS011;62183;49.006;12.102;2022-10-16T05:41:49;10.50;;;7.07;;
73840;SDS011;62183;49.006;12.102;2022-10-16T05:44:14;8.87;;;6.27;;
73840;SDS011;62183;49.006;12.102;2022-10-16T05:46:40;7.63;;;6.83;;
73840;SDS011;62183;49.006;12.102;2022-10-16T05:49:05;7.30;;;6.60;;
73840;SDS011;62183;49.006;12.102;2022-10-16T05:51:30;8.17;;;6.90;;
73840;SDS011;62183;49.006;12.102;2022-10-16T05:53:55;7.53;;;6.60;;
73840;SDS011;62183;49.006;12.102;2022-10-16T05:56:20;8.73;;;7.23;;
73840;SDS011;62183;49.006;12.102;2022-10-16T05:58:45;9.80;;;6.83;;
73840;SDS011;62183;49.006;12.102;2022-10-16T06:01:14;7.83;;;7.03;;
73840;SDS011;62183;49.006;12.102;2022-10-16T06:03:40;8.35;;;6.63;;
73840;SDS011;62183;49.006;12.102;2022-10-16T06:08:33;7.65;;;6.43;;
73840;SDS011;62183;49.006;12.102;2022-10-16T06:11:05;7.43;;;6.73;;
73840;SDS011;62183;49.006;12.102;2022-10-16T06:13:31;7.68;;;6.78;;
73840;SDS011;62183;49.006;12.102;2022-10-16T06:15:56;8.35;;;6.63;;
73840;SDS011;62183;49.006;12.102;2022-10-16T06:18:22;7.07;;;6.38;;
73840;SDS011;62183;49.006;12.102;2022-10-16T06:20:47;9.33;;;7.47;;
73840;SDS011;62183;49.006;12.102;2022-10-16T06:23:12;7.27;;;6.53;;
73840;SDS011;62183;49.006;12.102;2022-10-16T06:25:37;8.43;;;7.63;;
73840;SDS011;62183;49.006;12.102;2022-10-16T06:28:02;7.43;;;6.73;;
73840;SDS011;62183;49.006;12.102;2022-10-16T06:30:28;8.90;;;7.67;;
73840;SDS011;62183;49.006;12.102;2022-10-16T06:32:53;7.93;;;6.97;;
73840;SDS011;62183;49.006;12.102;2022-10-16T06:35:18;9.17;;;7.50;;
73840;SDS011;62183;49.006;12.102;2022-10-16T06:37:43;7.37;;;6.67;;
73840;SDS011;62183;49.006;12.102;2022-10-16T06:40:08;8.23;;;7.10;;
73840;SDS011;62183;49.006;12.102;2022-10-16T06:42:34;8.43;;;7.20;;
73840;SDS011;62183;49.006;12.102;2022-10-16T06:44:59;8.53;;;6.67;;
73840;SDS011;62183;49.006;12.102;2022-10-16T06:47:24;7.10;;;6.40;;
73840;SDS011;62183;49.006;12.102;2022-10-16T06:49:49;7.57;;;6.87;;
73840;SDS011;62183;49.006;12.102;2022-10-16T06:52:14;9.37;;;7.23;;
73840;SDS011;62183;49.006;12.102;2022-10-16T06:54:40;8.03;;;6.57;;
73840;SDS011;62183;49.006;12.102;2022-10-16T06:57:05;10.53;;;7.10;;
73840;SDS011;62183;49.006;12.102;2022-10-16T06:59:30;7.43;;;6.73;;
73840;SDS011;62183;49.006;12.102;2022-10-16T07:01:55;8.53;;;6.70;;
73840;SDS011;62183;49.006;12.102;2022-10-16T07:04:20;7.87;;;6.83;;
73840;SDS011;62183;49.006;12.102;2022-10-16T07:06:45;7.23;;;6.60;;
73840;SDS011;62183;49.006;12.102;2022-10-16T07:09:11;7.97;;;7.17;;
73840;SDS011;62183;49.006;12.102;2022-10-16T07:11:37;7.25;;;6.55;;
73840;SDS011;62183;49.006;12.102;2022-10-16T07:14:03;7.60;;;6.82;;
73840;SDS011;62183;49.006;12.102;2022-10-16T07:16:29;7.85;;;6.63;;
73840;SDS011;62183;49.006;12.102;2022-10-16T07:18:55;7.38;;;6.78;;
73840;SDS011;62183;49.006;12.102;2022-10-16T07:21:20;8.85;;;7.95;;
73840;SDS011;62183;49.006;12.102;2022-10-16T07:23:49;6.55;;;5.95;;
73840;SDS011;62183;49.006;12.102;2022-10-16T07:26:14;6.20;;;5.60;;
73840;SDS011;62183;49.006;12.102;2022-10-16T07:28:40;6.53;;;5.73;;
73840;SDS011;62183;49.006;12.102;2022-10-16T07:31:07;5.88;;;5.30;;
73840;SDS011;62183;49.006;12.102;2022-10-16T07:33:33;6.72;;;5.55;;
73840;SDS011;62183;49.006;12.102;2022-10-16T07:35:59;6.20;;;5.70;;
73840;SDS011;62183;49.006;12.102;2022-10-16T07:38:24;6.77;;;5.43;;
73840;SDS011;62183;49.006;12.102;2022-10-16T07:40:59;5.80;;;5.30;;
73840;SDS011;62183;49.006;12.102;2022-10-16T07:43:25;6.45;;;5.80;;
73840;SDS011;62183;49.006;12.102;2022-10-16T07:45:50;6.32;;;5.82;;
73840;SDS011;62183;49.006;12.102;2022-10-16T07:48:16;7.47;;;5.90;;
73840;SDS011;62183;49.006;12.102;2022-10-16T07:50:41;6.80;;;6.15;;
73840;SDS011;62183;49.006;12.102;2022-10-16T07:53:07;7.00;;;6.40;;
73840;SDS011;62183;49.006;12.102;2022-10-16T07:55:32;7.07;;;6.50;;
73840;SDS011;62183;49.006;12.102;2022-10-16T07:57:57;6.93;;;6.43;;
73840;SDS011;62183;49.006;12.102;2022-10-16T08:00:23;7.00;;;6.40;;
73840;SDS011;62183;49.006;12.102;2022-10-16T08:02:48;6.80;;;6.20;;
73840;SDS011;62183;49.006;12.102;2022-10-16T08:05:13;6.90;;;6.30;;
73840;SDS011;62183;49.006;12.102;2022-10-16T08:07:38;6.72;;;6.22;;
73840;SDS011;62183;49.006;12.102;2022-10-16T08:10:04;7.07;;;6.37;;
73840;SDS011;62183;49.006;12.102;2022-10-16T08:12:29;6.43;;;6.00;;
73840;SDS011;62183;49.006;12.102;2022-10-16T08:14:54;6.50;;;5.90;;
73840;SDS011;62183;49.006;12.102;2022-10-16T08:17:19;6.50;;;5.80;;
73840;SDS011;62183;49.006;12.102;2022-10-16T08:19:45;5.90;;;5.50;;
73840;SDS011;62183;49.006;12.102;2022-10-16T08:22:10;6.57;;;6.07;;
73840;SDS011;62183;49.006;12.102;2022-10-16T08:24:35;6.63;;;6.03;;
73840;SDS011;62183;49.006;12.102;2022-10-16T08:27:01;7.10;;;6.60;;
73840;SDS011;62183;49.006;12.102;2022-10-16T08:29:26;7.20;;;6.70;;
73840;SDS011;62183;49.006;12.102;2022-10-16T08:31:51;7.83;;;7.20;;
73840;SDS011;62183;49.006;12.102;2022-10-16T08:34:16;10.30;;;9.40;;
73840;SDS011;62183;49.006;12.102;2022-10-16T08:36:41;8.10;;;7.40;;
73840;SDS011;62183;49.006;12.102;2022-10-16T08:39:07;8.63;;;7.30;;
73840;SDS011;62183;49.006;12.102;2022-10-16T08:44:20;7.57;;;6.95;;
73840;SDS011;62183;49.006;12.102;2022-10-16T08:49:32;7.32;;;6.80;;
73840;SDS011;62183;49.006;12.102;2022-10-16T08:51:57;6.83;;;6.43;;
73840;SDS011;62183;49.006;12.102;2022-10-16T08:54:26;6.63;;;6.22;;
73840;SDS011;62183;49.006;12.102;2022-10-16T08:56:56;6.93;;;6.30;;
73840;SDS011;62183;49.006;12.102;2022-10-16T08:59:22;6.63;;;6.22;;
73840;SDS011;62183;49.006;12.102;2022-10-16T09:01:48;6.93;;;6.43;;
73840;SDS011;62183;49.006;12.102;2022-10-16T09:06:41;6.93;;;6.23;;
73840;SDS011;62183;49.006;12.102;2022-10-16T09:09:12;7.38;;;6.72;;
73840;SDS011;62183;49.006;12.102;2022-10-16T09:14:17;6.70;;;6.20;;
73840;SDS011;62183;49.006;12.102;2022-10-16T09:16:46;6.68;;;6.20;;
73840;SDS011;62183;49.006;12.102;2022-10-16T09:21:42;7.53;;;6.93;;
73840;SDS011;62183;49.006;12.102;2022-10-16T09:26:36;7.57;;;7.07;;
73840;SDS011;62183;49.006;12.102;2022-10-16T09:29:01;7.37;;;6.87;;
73840;SDS011;62183;49.006;12.102;2022-10-16T09:31:27;7.53;;;6.93;;
73840;SDS011;62183;49.006;12.102;2022-10-16T09:33:53;7.30;;;6.90;;
73840;SDS011;62183;49.006;12.102;2022-10-16T09:36:20;9.65;;;7.43;;
73840;SDS011;62183;49.006;12.102;2022-10-16T09:38:45;7.70;;;7.10;;
73840;SDS011;62183;49.006;12.102;2022-10-16T09:41:15;7.57;;;7.10;;
73840;SDS011;62183;49.006;12.102;2022-10-16T09:46:26;7.38;;;6.88;;
73840;SDS011;62183;49.006;12.102;2022-10-16T09:48:51;7.55;;;7.05;;
73840;SDS011;62183;49.006;12.102;2022-10-16T09:51:29;7.50;;;6.95;;
73840;SDS011;62183;49.006;12.102;2022-10-16T09:56:33;7.18;;;6.68;;
73840;SDS011;62183;49.006;12.102;2022-10-16T09:59:00;7.43;;;6.93;;
73840;SDS011;62183;49.006;12.102;2022-10-16T10:01:30;7.57;;;7.07;;
73840;SDS011;62183;49.006;12.102;2022-10-16T10:03:56;8.07;;;7.57;;
73840;SDS011;62183;49.006;12.102;2022-10-16T10:06:23;7.95;;;7.35;;
73840;SDS011;62183;49.006;12.102;2022-10-16T10:11:40;7.65;;;7.10;;
73840;SDS011;62183;49.006;12.102;2022-10-16T10:14:13;7.70;;;7.20;;
73840;SDS011;62183;49.006;12.102;2022-10-16T10:16:40;6.90;;;6.40;;
73840;SDS011;62183;49.006;12.102;2022-10-16T10:19:09;7.10;;;6.60;;
73840;SDS011;62183;49.006;12.102;2022-10-16T10:21:38;7.10;;;6.50;;
73840;SDS011;62183;49.006;12.102;2022-10-16T10:24:03;7.03;;;6.10;;
73840;SDS011;62183;49.006;12.102;2022-10-16T10:26:28;6.53;;;6.13;;
73840;SDS011;62183;49.006;12.102;2022-10-16T10:29:02;7.10;;;6.60;;
73840;SDS011;62183;49.006;12.102;2022-10-16T10:31:34;7.13;;;6.50;;
73840;SDS011;62183;49.006;12.102;2022-10-16T10:38:56;6.60;;;6.20;;
73840;SDS011;62183;49.006;12.102;2022-10-16T10:46:42;6.93;;;6.43;;
73840;SDS011;62183;49.006;12.102;2022-10-16T10:49:22;6.25;;;5.85;;
73840;SDS011;62183;49.006;12.102;2022-10-16T10:51:55;6.50;;;6.10;;
73840;SDS011;62183;49.006;12.102;2022-10-16T10:54:27;6.75;;;6.25;;
73840;SDS011;62183;49.006;12.102;2022-10-16T10:56:57;6.63;;;6.22;;
73840;SDS011;62183;49.006;12.102;2022-10-16T11:10:03;6.60;;;6.20;;
73840;SDS011;62183;49.006;12.102;2022-10-16T11:12:34;6.97;;;6.40;;
73840;SDS011;62183;49.006;12.102;2022-10-16T11:15:10;6.90;;;6.50;;
73840;SDS011;62183;49.006;12.102;2022-10-16T11:17:45;7.32;;;6.93;;
73840;SDS011;62183;49.006;12.102;2022-10-16T11:22:42;7.25;;;6.80;;
73840;SDS011;62183;49.006;12.102;2022-10-16T11:25:20;7.50;;;7.10;;
73840;SDS011;62183;49.006;12.102;2022-10-16T11:27:48;7.53;;;7.13;;
73840;SDS011;62183;49.006;12.102;2022-10-16T11:30:16;8.00;;;7.47;;
73840;SDS011;62183;49.006;12.102;2022-10-16T11:32:56;8.02;;;7.40;;
73840;SDS011;62183;49.006;12.102;2022-10-16T11:35:38;7.93;;;7.15;;
73840;SDS011;62183;49.006;12.102;2022-10-16T11:38:08;8.05;;;7.50;;
73840;SDS011;62183;49.006;12.102;2022-10-16T11:40:35;7.95;;;7.35;;
73840;SDS011;62183;49.006;12.102;2022-10-16T11:45:54;8.13;;;7.63;;
73840;SDS011;62183;49.006;12.102;2022-10-16T11:48:35;7.85;;;7.43;;
73840;SDS011;62183;49.006;12.102;2022-10-16T11:51:19;8.23;;;7.70;;
73840;SDS011;62183;49.006;12.102;2022-10-16T11:53:51;8.18;;;7.55;;
73840;SDS011;62183;49.006;12.102;2022-10-16T11:56:19;8.27;;;7.50;;
73840;SDS011;62183;49.006;12.102;2022-10-16T11:58:52;7.72;;;7.15;;
73840;SDS011;62183;49.006;12.102;2022-10-16T12:08:56;7.10;;;6.70;;
73840;SDS011;62183;49.006;12.102;2022-10-16T12:13:48;7.47;;;7.07;;
73840;SDS011;62183;49.006;12.102;2022-10-16T12:18:44;7.53;;;6.93;;
73840;SDS011;62183;49.006;12.102;2022-10-16T12:21:09;6.60;;;6.30;;
73840;SDS011;62183;49.006;12.102;2022-10-16T12:26:12;7.18;;;6.50;;
73840;SDS011;62183;49.006;12.102;2022-10-16T12:28:38;7.07;;;6.63;;
73840;SDS011;62183;49.006;12.102;2022-10-16T12:31:05;7.35;;;6.75;;
73840;SDS011;62183;49.006;12.102;2022-10-16T12:33:32;6.88;;;6.40;;
73840;SDS011;62183;49.006;12.102;2022-10-16T12:35:58;6.90;;;6.50;;
73840;SDS011;62183;49.006;12.102;2022-10-16T12:38:28;6.90;;;6.50;;
73840;SDS011;62183;49.006;12.102;2022-10-16T12:41:05;6.87;;;6.37;;
73840;SDS011;62183;49.006;12.102;2022-10-16T12:46:04;7.30;;;6.80;;
73840;SDS011;62183;49.006;12.102;2022-10-16T12:48:29;6.60;;;6.10;;
73840;SDS011;62183;49.006;12.102;2022-10-16T12:50:55;6.47;;;6.15;;
73840;SDS011;62183;49.006;12.102;2022-10-16T12:53:21;6.88;;;6.38;;
73840;SDS011;62183;49.006;12.102;2022-10-16T12:56:03;6.82;;;6.43;;
73840;SDS011;62183;49.006;12.102;2022-10-16T13:00:57;7.25;;;6.43;;
73840;SDS011;62183;49.006;12.102;2022-10-16T13:09:01;6.85;;;6.43;;
73840;SDS011;62183;49.006;12.102;2022-10-16T13:15:16;6.75;;;6.20;;
73840;SDS011;62183;49.006;12.102;2022-10-16T13:22:05;6.40;;;5.90;;
73840;SDS011;62183;49.006;12.102;2022-10-16T13:27:22;6.40;;;6.05;;
73840;SDS011;62183;49.006;12.102;2022-10-16T13:29:53;6.38;;;5.88;;
73840;SDS011;62183;49.006;12.102;2022-10-16T13:32:18;6.78;;;6.30;;
73840;SDS011;62183;49.006;12.102;2022-10-16T13:34:45;6.63;;;6.13;;
73840;SDS011;62183;49.006;12.102;2022-10-16T13:37:18;6.50;;;6.10;;
73840;SDS011;62183;49.006;12.102;2022-10-16T13:39:43;6.30;;;5.93;;
73840;SDS011;62183;49.006;12.102;2022-10-16T13:42:18;6.65;;;6.25;;
73840;SDS011;62183;49.006;12.102;2022-10-16T13:44:47;6.55;;;6.07;;
73840;SDS011;62183;49.006;12.102;2022-10-16T13:47:31;6.78;;;6.28;;
73840;SDS011;62183;49.006;12.102;2022-10-16T13:50:00;6.55;;;6.15;;
73840;SDS011;62183;49.006;12.102;2022-10-16T13:52:25;6.63;;;6.22;;
73840;SDS011;62183;49.006;12.102;2022-10-16T13:54:50;6.80;;;6.23;;
73840;SDS011;62183;49.006;12.102;2022-10-16T13:57:16;6.03;;;5.73;;
73840;SDS011;62183;49.006;12.102;2022-10-16T13:59:41;6.60;;;6.18;;
73840;SDS011;62183;49.006;12.102;2022-10-16T14:04:41;6.70;;;6.18;;
73840;SDS011;62183;49.006;12.102;2022-10-16T14:07:11;6.35;;;5.88;;
73840;SDS011;62183;49.006;12.102;2022-10-16T14:09:38;6.72;;;6.22;;
73840;SDS011;62183;49.006;12.102;2022-10-16T14:12:07;6.27;;;5.87;;
73840;SDS011;62183;49.006;12.102;2022-10-16T14:14:43;6.40;;;6.00;;
73840;SDS011;62183;49.006;12.102;2022-10-16T14:17:15;6.30;;;5.90;;
73840;SDS011;62183;49.006;12.102;2022-10-16T14:19:45;6.55;;;6.00;;
73840;SDS011;62183;49.006;12.102;2022-10-16T14:22:26;6.93;;;6.30;;
73840;SDS011;62183;49.006;12.102;2022-10-16T14:24:52;6.72;;;6.32;;
73840;SDS011;62183;49.006;12.102;2022-10-16T14:27:25;6.60;;;6.20;;
73840;SDS011;62183;49.006;12.102;2022-10-16T14:30:01;6.85;;;6.45;;
73840;SDS011;62183;49.006;12.102;2022-10-16T14:32:28;6.90;;;6.40;;
73840;SDS011;62183;49.006;12.102;2022-10-16T14:34:54;6.60;;;6.03;;
73840;SDS011;62183;49.006;12.102;2022-10-16T14:39:48;6.40;;;6.00;;
73840;SDS011;62183;49.006;12.102;2022-10-16T14:42:14;6.32;;;5.93;;
73840;SDS011;62183;49.006;12.102;2022-10-16T14:44:41;6.95;;;6.45;;
73840;SDS011;62183;49.006;12.102;2022-10-16T14:47:06;6.00;;;5.60;;
73840;SDS011;62183;49.006;12.102;2022-10-16T14:49:32;6.28;;;5.88;;
73840;SDS011;62183;49.006;12.102;2022-10-16T14:51:57;6.53;;;6.03;;
73840;SDS011;62183;49.006;12.102;2022-10-16T14:54:22;6.67;;;6.17;;
73840;SDS011;62183;49.006;12.102;2022-10-16T14:56:54;6.70;;;6.20;;
73840;SDS011;62183;49.006;12.102;2022-10-16T15:01:54;6.50;;;6.10;;
73840;SDS011;62183;49.006;12.102;2022-10-16T15:04:19;6.93;;;6.43;;
73840;SDS011;62183;49.006;12.102;2022-10-16T15:06:44;6.67;;;6.27;;
73840;SDS011;62183;49.006;12.102;2022-10-16T15:09:10;6.50;;;6.10;;
73840;SDS011;62183;49.006;12.102;2022-10-16T15:11:35;6.82;;;6.20;;
73840;SDS011;62183;49.006;12.102;2022-10-16T15:14:00;7.10;;;6.50;;
73840;SDS011;62183;49.006;12.102;2022-10-16T15:16:26;10.52;;;6.30;;
73840;SDS011;62183;49.006;12.102;2022-10-16T15:18:51;6.60;;;6.10;;
73840;SDS011;62183;49.006;12.102;2022-10-16T15:21:24;6.90;;;6.40;;
73840;SDS011;62183;49.006;12.102;2022-10-16T15:23:50;6.97;;;6.38;;
73840;SDS011;62183;49.006;12.102;2022-10-16T15:26:15;7.33;;;6.63;;
73840;SDS011;62183;49.006;12.102;2022-10-16T15:28:40;7.40;;;6.77;;
73840;SDS011;62183;49.006;12.102;2022-10-16T15:31:05;6.83;;;6.27;;
73840;SDS011;62183;49.006;12.102;2022-10-16T15:33:30;6.57;;;6.07;;
73840;SDS011;62183;49.006;12.102;2022-10-16T15:35:56;6.77;;;6.27;;
73840;SDS011;62183;49.006;12.102;2022-10-16T15:38:21;6.63;;;6.13;;
73840;SDS011;62183;49.006;12.102;2022-10-16T15:40:47;7.03;;;6.47;;
73840;SDS011;62183;49.006;12.102;2022-10-16T15:43:13;6.97;;;6.38;;
73840;SDS011;62183;49.006;12.102;2022-10-16T15:45:38;7.10;;;6.50;;
73840;SDS011;62183;49.006;12.102;2022-10-16T15:48:03;7.03;;;6.35;;
73840;SDS011;62183;49.006;12.102;2022-10-16T15:50:29;7.55;;;6.85;;
73840;SDS011;62183;49.006;12.102;2022-10-16T15:52:55;6.78;;;6.28;;
73840;SDS011;62183;49.006;12.102;2022-10-16T15:55:20;6.93;;;6.37;;
73840;SDS011;62183;49.006;12.102;2022-10-16T15:57:45;6.90;;;6.30;;
73840;SDS011;62183;49.006;12.102;2022-10-16T16:00:14;7.10;;;6.50;;
73840;SDS011;62183;49.006;12.102;2022-10-16T16:02:40;7.43;;;6.93;;
73840;SDS011;62183;49.006;12.102;2022-10-16T16:05:06;7.40;;;6.80;;
73840;SDS011;62183;49.006;12.102;2022-10-16T16:07:32;7.32;;;6.72;;
73840;SDS011;62183;49.006;12.102;2022-10-16T16:09:57;7.15;;;6.55;;
73840;SDS011;62183;49.006;12.102;2022-10-16T16:12:22;8.03;;;6.70;;
73840;SDS011;62183;49.006;12.102;2022-10-16T16:14:48;9.93;;;7.20;;
73840;SDS011;62183;49.006;12.102;2022-10-16T16:17:13;7.20;;;6.60;;
73840;SDS011;62183;49.006;12.102;2022-10-16T16:19:38;8.27;;;7.47;;